Time;durP1;ratioP1;P1;durP2;ratioP2;P2;SDS_P1;SDS_P2;PMS_P1;PMS_P2;Temp;Humidity;BMP_temperature;BMP_pressure;BME280_temperature;BME280_humidity;BME280_pressure;Samples;Min_cycle;Max_cycle;Signal;HPM_P1;HPM_P2
2023/09/12 00:00:33;;;;;;;3.97;1.95;;;;;;;18.08;100.00;100300.56;4983277;28;20126;-69
2023/09/12 00:02:59;;;;;;;5.82;2.08;;;;;;;18.03;100.00;100295.16;4967036;28;20022;-69
2023/09/12 00:05:24;;;;;;;3.78;2.50;;;;;;;18.03;100.00;100300.78;4983122;28;20064;-69
2023/09/12 00:07:52;;;;;;;3.53;2.10;;;;;;;18.00;100.00;100292.25;4967555;28;20427;-69
2023/09/12 00:10:18;;;;;;;4.68;2.30;;;;;;;17.97;100.00;100296.56;4978130;28;20051;-69
2023/09/12 00:12:44;;;;;;;3.58;2.17;;;;;;;17.96;100.00;100294.91;4981863;28;20040;-69
2023/09/12 00:15:09;;;;;;;5.80;2.20;;;;;;;17.94;100.00;100288.00;4983116;28;20038;-69
2023/09/12 00:17:35;;;;;;;3.38;2.10;;;;;;;17.92;100.00;100285.56;4981870;28;20105;-69
2023/09/12 00:20:00;;;;;;;4.22;2.10;;;;;;;17.93;100.00;100281.56;4982390;28;20030;-69
2023/09/12 00:22:25;;;;;;;4.38;2.58;;;;;;;17.88;100.00;100284.59;4966494;28;20494;-69
2023/09/12 00:24:51;;;;;;;6.32;2.35;;;;;;;17.88;100.00;100278.16;4966739;28;20030;-69
2023/09/12 00:27:16;;;;;;;3.97;2.35;;;;;;;17.84;100.00;100269.63;4969920;28;20156;-69
2023/09/12 00:29:42;;;;;;;4.15;2.15;;;;;;;17.81;100.00;100273.94;4967625;28;20041;-69
2023/09/12 00:32:07;;;;;;;4.72;2.00;;;;;;;17.80;100.00;100277.94;4994907;28;20035;-69
2023/09/12 00:34:33;;;;;;;4.47;2.45;;;;;;;17.82;100.00;100286.00;4979912;28;20434;-69
2023/09/12 00:36:58;;;;;;;4.47;2.25;;;;;;;17.78;100.00;100274.66;4982678;28;20038;-69
2023/09/12 00:39:24;;;;;;;6.25;2.30;;;;;;;17.76;100.00;100262.91;4982461;28;20096;-69
2023/09/12 00:41:49;;;;;;;5.63;2.47;;;;;;;17.73;100.00;100260.78;4982523;28;20026;-69
2023/09/12 00:44:15;;;;;;;3.63;2.65;;;;;;;17.70;100.00;100258.69;4982480;28;20037;-69
2023/09/12 00:46:40;;;;;;;4.32;2.50;;;;;;;17.73;100.00;100257.16;4998726;28;20617;-70
2023/09/12 00:49:06;;;;;;;4.28;2.88;;;;;;;17.74;100.00;100258.78;4982327;28;20050;-69
2023/09/12 00:51:32;;;;;;;4.45;2.47;;;;;;;17.74;100.00;100259.59;4982203;28;20130;-69
2023/09/12 00:53:57;;;;;;;3.97;2.85;;;;;;;17.73;100.00;100257.97;4965974;28;20491;-69
2023/09/12 00:56:23;;;;;;;5.65;2.58;;;;;;;17.71;100.00;100251.06;4966087;28;20030;-69
2023/09/12 00:58:51;;;;;;;4.63;2.38;;;;;;;17.74;100.00;100256.81;4982019;28;20030;-69
2023/09/12 01:01:17;;;;;;;3.92;2.42;;;;;;;17.72;100.00;100252.69;4982508;28;20537;-69
2023/09/12 01:03:43;;;;;;;4.90;2.22;;;;;;;17.70;100.00;100244.63;4985206;28;20033;-69
2023/09/12 01:06:08;;;;;;;4.65;2.30;;;;;;;17.73;100.00;100248.75;4982093;28;20495;-69
2023/09/12 01:08:37;;;;;;;4.32;2.00;;;;;;;17.69;100.00;100250.59;4965464;28;20033;-69
2023/09/12 01:11:03;;;;;;;5.25;2.38;;;;;;;17.69;100.00;100247.78;4997884;28;20050;-69
2023/09/12 01:13:28;;;;;;;4.85;2.30;;;;;;;17.67;100.00;100244.53;4982165;28;20029;-69
2023/09/12 01:15:54;;;;;;;4.05;2.60;;;;;;;17.68;100.00;100241.34;4981992;28;20542;-69
2023/09/12 01:18:19;;;;;;;4.00;2.40;;;;;;;17.61;100.00;100239.13;4997962;28;20041;-69
2023/09/12 01:21:04;;;;;;;5.75;2.30;;;;;;;17.60;100.00;100233.84;4981581;28;20038;-69
2023/09/12 01:23:30;;;;;;;4.60;2.45;;;;;;;17.55;100.00;100234.91;4983058;28;20032;-69
2023/09/12 01:26:02;;;;;;;4.47;2.47;;;;;;;17.57;100.00;100243.78;4999384;28;20113;-69
2023/09/12 01:28:30;;;;;;;4.87;2.30;;;;;;;17.54;100.00;100236.06;4999131;28;20041;-69
2023/09/12 01:30:55;;;;;;;3.97;2.22;;;;;;;17.54;100.00;100233.25;4981839;28;20105;-69
2023/09/12 01:33:21;;;;;;;6.18;2.50;;;;;;;17.50;100.00;100229.50;4981851;28;20034;-69
2023/09/12 01:35:46;;;;;;;5.78;2.80;;;;;;;17.50;100.00;100232.31;4997814;28;20034;-69
2023/09/12 01:38:13;;;;;;;3.72;2.42;;;;;;;17.49;100.00;100233.47;4981116;28;20030;-69
2023/09/12 01:40:49;;;;;;;4.97;2.50;;;;;;;17.48;100.00;100231.84;4981716;28;20029;-70
2023/09/12 01:43:16;;;;;;;4.53;2.40;;;;;;;17.45;100.00;100243.75;4982697;28;20086;-69
2023/09/12 01:45:42;;;;;;;3.97;2.65;;;;;;;17.43;100.00;100240.47;4965765;28;20084;-69
2023/09/12 01:48:07;;;;;;;3.95;2.22;;;;;;;17.40;100.00;100243.97;4981338;28;20033;-69
2023/09/12 01:50:33;;;;;;;3.75;2.42;;;;;;;17.36;100.00;100237.44;4981159;28;20058;-69
2023/09/12 01:52:58;;;;;;;5.95;2.58;;;;;;;17.41;100.00;100240.84;4964883;28;20394;-69
2023/09/12 01:55:24;;;;;;;4.47;2.40;;;;;;;17.40;100.00;100243.97;4981357;28;20034;-69
2023/09/12 01:57:49;;;;;;;2.90;2.30;;;;;;;17.34;100.00;100253.78;4962659;28;20035;-69
2023/09/12 02:00:16;;;;;;;4.57;2.53;;;;;;;17.33;100.00;100246.56;4973527;28;20026;-69
2023/09/12 02:02:42;;;;;;;3.80;2.40;;;;;;;17.32;100.00;100239.28;4981107;28;20039;-69
2023/09/12 02:05:14;;;;;;;3.55;2.45;;;;;;;17.35;100.00;100244.19;4961715;28;20487;-69
2023/09/12 02:07:41;;;;;;;6.03;2.93;;;;;;;17.32;100.00;100242.91;4961795;28;20435;-69
2023/09/12 02:10:07;;;;;;;5.13;2.55;;;;;;;17.29;100.00;100252.00;4980659;28;20034;-69
2023/09/12 02:12:32;;;;;;;4.50;2.50;;;;;;;17.29;100.00;100256.81;4995005;28;20045;-69
2023/09/12 02:14:57;;;;;;;4.57;2.78;;;;;;;17.25;100.00;100247.47;4997132;28;20042;-69
2023/09/12 02:17:23;;;;;;;3.90;2.30;;;;;;;17.28;100.00;100243.97;4964470;28;20038;-69
2023/09/12 02:19:49;;;;;;;5.40;2.72;;;;;;;17.25;100.00;100247.47;4980600;28;20045;-69
2023/09/12 02:22:14;;;;;;;4.55;2.67;;;;;;;17.23;100.00;100250.59;4980792;28;20109;-69
2023/09/12 02:24:40;;;;;;;4.97;2.45;;;;;;;17.23;100.00;100247.78;4980798;28;20478;-69
2023/09/12 02:27:05;;;;;;;6.38;2.70;;;;;;;17.22;100.00;100245.31;4996781;28;20031;-69
2023/09/12 02:29:32;;;;;;;5.00;2.38;;;;;;;17.20;100.00;100249.28;4964514;28;20034;-69
2023/09/12 02:31:58;;;;;;;7.00;3.10;;;;;;;17.15;100.00;100243.91;4980994;28;20034;-69
2023/09/12 02:34:23;;;;;;;4.25;2.35;;;;;;;17.16;100.00;100245.56;4996878;28;20045;-69
2023/09/12 02:36:49;;;;;;;4.78;3.00;;;;;;;17.13;100.00;100243.44;4996707;28;20478;-69
2023/09/12 02:39:15;;;;;;;4.93;3.20;;;;;;;17.16;100.00;100242.75;4964244;28;20026;-69
2023/09/12 02:41:40;;;;;;;4.30;2.55;;;;;;;17.17;100.00;100237.94;4980681;28;20037;-70
2023/09/12 02:44:06;;;;;;;3.80;2.72;;;;;;;17.20;100.00;100232.47;4980390;28;20038;-69
2023/09/12 02:46:32;;;;;;;3.33;2.40;;;;;;;17.18;100.00;100240.41;4980612;28;20038;-69
2023/09/12 02:48:57;;;;;;;4.82;2.45;;;;;;;17.19;100.00;100242.06;4968314;28;20073;-69
2023/09/12 02:51:24;;;;;;;3.17;2.40;;;;;;;17.23;100.00;100244.16;4979824;28;20030;-69
2023/09/12 02:53:50;;;;;;;5.70;2.72;;;;;;;17.23;100.00;100238.56;4980394;28;20058;-69
2023/09/12 02:56:15;;;;;;;4.18;2.92;;;;;;;17.23;100.00;100236.56;4980506;28;20394;-69
2023/09/12 02:58:41;;;;;;;4.60;2.38;;;;;;;17.30;100.00;100236.00;4996501;28;20034;-69
2023/09/12 03:01:06;;;;;;;4.72;2.33;;;;;;;17.28;100.00;100235.53;4980319;28;20065;-69
2023/09/12 03:03:32;;;;;;;3.45;2.30;;;;;;;17.27;100.00;100236.69;4980385;28;20035;-69
2023/09/12 03:06:02;;;;;;;4.65;2.60;;;;;;;17.29;100.00;100237.16;4976783;28;20391;-69
2023/09/12 03:08:28;;;;;;;3.53;2.70;;;;;;;17.34;100.00;100236.94;4980022;28;20170;-69
2023/09/12 03:10:56;;;;;;;4.15;2.30;;;;;;;17.36;100.00;100231.81;4996438;28;20067;-69
2023/09/12 03:13:24;;;;;;;4.22;2.50;;;;;;;17.36;100.00;100229.00;4980373;28;20031;-69
2023/09/12 03:15:50;;;;;;;4.00;2.67;;;;;;;17.38;100.00;100235.06;4980579;28;20597;-69
2023/09/12 03:18:15;;;;;;;5.05;2.75;;;;;;;17.39;100.00;100236.75;4980064;28;20030;-69
2023/09/12 03:20:40;;;;;;;4.47;2.60;;;;;;;17.40;100.00;100232.75;4979903;28;20023;-69
2023/09/12 03:23:06;;;;;;;6.40;3.13;;;;;;;17.40;100.00;100235.56;4997244;28;20030;-69
2023/09/12 03:25:36;;;;;;;6.82;2.92;;;;;;;17.42;100.00;100231.25;4983781;28;20034;-69
2023/09/12 03:28:02;;;;;;;3.60;2.28;;;;;;;17.42;100.00;100238.84;4984255;28;20060;-69
2023/09/12 03:30:27;;;;;;;3.95;2.63;;;;;;;17.44;100.00;100239.34;4967620;28;20049;-69
2023/09/12 03:32:53;;;;;;;4.72;3.13;;;;;;;17.41;100.00;100242.81;5000039;28;20080;-69
2023/09/12 03:35:18;;;;;;;5.57;3.05;;;;;;;17.45;100.00;100242.94;4999885;28;20513;-69
2023/09/12 03:37:44;;;;;;;3.35;2.35;;;;;;;17.48;100.00;100240.25;4983453;28;20085;-70
2023/09/12 03:40:11;;;;;;;4.13;2.70;;;;;;;17.49;100.00;100241.06;4983657;28;20042;-69
2023/09/12 03:42:36;;;;;;;3.67;2.80;;;;;;;17.49;100.00;100244.69;4983898;28;20061;-69
2023/09/12 03:45:03;;;;;;;3.85;2.47;;;;;;;17.50;100.00;100237.13;5000031;28;20046;-69
2023/09/12 03:47:28;;;;;;;5.00;2.80;;;;;;;17.51;100.00;100238.75;4983716;28;20060;-69
2023/09/12 03:49:54;;;;;;;3.97;2.22;;;;;;;17.49;100.00;100239.09;4967221;28;20026;-69
2023/09/12 03:52:19;;;;;;;3.90;2.65;;;;;;;17.47;100.00;100241.44;4964475;28;20093;-69
2023/09/12 03:54:45;;;;;;;6.38;2.60;;;;;;;17.49;100.00;100241.06;4967209;28;20037;-69
2023/09/12 03:57:10;;;;;;;4.32;2.38;;;;;;;17.47;100.00;100244.25;4983441;28;20033;-69
2023/09/12 03:59:36;;;;;;;5.80;2.60;;;;;;;17.42;100.00;100238.84;4967248;28;20054;-69
2023/09/12 04:02:03;;;;;;;3.65;2.08;;;;;;;17.41;100.00;100242.81;4983387;28;20038;-69
2023/09/12 04:04:28;;;;;;;4.65;2.50;;;;;;;17.38;100.00;100241.53;4983380;28;20037;-69
2023/09/12 04:06:54;;;;;;;2.70;2.20;;;;;;;17.39;100.00;100233.94;4982720;28;20034;-69
2023/09/12 04:09:20;;;;;;;3.30;2.20;;;;;;;17.39;100.00;100231.13;4982649;28;20030;-69
2023/09/12 04:11:45;;;;;;;3.08;2.22;;;;;;;17.39;100.00;100245.16;4982909;28;20050;-69
2023/09/12 04:14:11;;;;;;;4.05;2.38;;;;;;;17.36;100.00;100234.63;4983119;28;20084;-69
2023/09/12 04:16:37;;;;;;;3.13;2.13;;;;;;;17.36;100.00;100234.63;4982914;28;20535;-69
2023/09/12 04:19:03;;;;;;;4.05;2.78;;;;;;;17.35;100.00;100238.59;4998835;28;20031;-69
2023/09/12 04:21:28;;;;;;;4.20;2.45;;;;;;;17.32;100.00;100239.28;4983159;28;20027;-69
2023/09/12 04:23:54;;;;;;;4.53;2.50;;;;;;;17.31;100.00;100230.03;4982647;28;20041;-69
2023/09/12 04:26:19;;;;;;;6.38;3.03;;;;;;;17.33;100.00;100235.31;4999155;28;20048;-69
2023/09/12 04:28:46;;;;;;;4.93;2.70;;;;;;;17.31;100.00;100235.66;4982683;28;20030;-69
2023/09/12 04:31:12;;;;;;;6.50;3.00;;;;;;;17.32;100.00;100228.88;5000351;28;20030;-69
2023/09/12 04:33:37;;;;;;;5.68;2.80;;;;;;;17.35;100.00;100245.00;4982184;28;20041;-69
2023/09/12 04:36:03;;;;;;;5.65;2.70;;;;;;;17.36;100.00;100243.06;4982909;28;20387;-69
2023/09/12 04:38:29;;;;;;;4.80;2.58;;;;;;;17.40;100.00;100246.78;4998509;28;20061;-69
2023/09/12 04:41:02;;;;;;;3.90;2.65;;;;;;;17.36;100.00;100237.44;4982723;28;20022;-69
2023/09/12 04:43:28;;;;;;;3.83;2.65;;;;;;;17.36;100.00;100234.63;4968079;28;20031;-69
2023/09/12 04:45:54;;;;;;;3.92;2.95;;;;;;;17.36;100.00;100243.88;4982656;28;20027;-69
2023/09/12 04:48:19;;;;;;;5.97;3.28;;;;;;;17.39;100.00;100245.16;4982539;28;20037;-70
2023/09/12 04:50:45;;;;;;;3.55;2.67;;;;;;;17.36;100.00;100240.25;5014736;28;20034;-69
2023/09/12 04:53:11;;;;;;;4.35;2.88;;;;;;;17.39;100.00;100256.38;4982252;28;20073;-69
2023/09/12 04:55:36;;;;;;;6.43;3.08;;;;;;;17.40;100.00;100252.41;4982288;28;20085;-69
2023/09/12 04:58:03;;;;;;;5.13;2.80;;;;;;;17.38;100.00;100249.13;4982457;28;20057;-70
2023/09/12 05:00:28;;;;;;;3.45;2.60;;;;;;;17.42;100.00;100253.69;4982365;28;20038;-69
2023/09/12 05:02:53;;;;;;;4.82;2.92;;;;;;;17.42;100.00;100261.31;4982259;28;20553;-69
2023/09/12 05:05:19;;;;;;;6.45;3.17;;;;;;;17.40;100.00;100258.03;4982104;28;20033;-69
2023/09/12 05:07:45;;;;;;;4.45;2.90;;;;;;;17.39;100.00;100264.81;4965850;28;20034;-69
2023/09/12 05:10:10;;;;;;;4.30;2.75;;;;;;;17.39;100.00;100259.19;4997932;28;20035;-69
2023/09/12 05:12:36;;;;;;;4.05;2.50;;;;;;;17.42;100.00;100261.31;4998259;28;20030;-69
2023/09/12 05:15:02;;;;;;;4.13;2.90;;;;;;;17.40;100.00;100264.44;4982121;28;20037;-69
2023/09/12 05:17:27;;;;;;;5.18;2.83;;;;;;;17.40;100.00;100266.44;4981934;28;20434;-69
2023/09/12 05:19:53;;;;;;;5.03;2.80;;;;;;;17.39;100.00;100262.00;4997833;28;20045;-69
2023/09/12 05:22:19;;;;;;;5.50;3.53;;;;;;;17.39;100.00;100262.00;4965439;28;20041;-69
2023/09/12 05:24:45;;;;;;;5.18;3.13;;;;;;;17.37;100.00;100262.34;4981975;28;20026;-69
2023/09/12 05:27:11;;;;;;;4.05;3.03;;;;;;;17.33;100.00;100263.41;4981806;28;20173;-69
2023/09/12 05:29:36;;;;;;;4.72;2.80;;;;;;;17.33;100.00;100269.00;4981906;28;20050;-69
2023/09/12 05:32:02;;;;;;;4.20;2.90;;;;;;;17.31;100.00;100271.34;4981390;28;20041;-69
2023/09/12 05:34:28;;;;;;;4.60;3.08;;;;;;;17.32;100.00;100275.75;4981797;28;20525;-70
2023/09/12 05:36:53;;;;;;;3.85;2.90;;;;;;;17.33;100.00;100263.41;4981563;28;20030;-69
2023/09/12 05:39:19;;;;;;;3.70;2.80;;;;;;;17.34;100.00;100259.41;4981131;28;20501;-69
2023/09/12 05:41:44;;;;;;;5.13;2.70;;;;;;;17.34;100.00;100263.03;4965359;28;20065;-69
2023/09/12 05:44:12;;;;;;;4.30;2.67;;;;;;;17.32;100.00;100262.53;4981780;28;20058;-69
2023/09/12 05:46:38;;;;;;;4.60;3.42;;;;;;;17.33;100.00;100257.78;4964909;28;20042;-69
2023/09/12 05:49:03;;;;;;;5.53;3.50;;;;;;;17.32;100.00;100258.94;4997367;28;20077;-69
2023/09/12 05:51:29;;;;;;;4.22;3.08;;;;;;;17.30;100.00;100255.63;4965052;28;20474;-69
2023/09/12 05:53:55;;;;;;;3.40;2.70;;;;;;;17.35;100.00;100256.25;4997248;28;20067;-69
2023/09/12 05:56:21;;;;;;;4.55;3.05;;;;;;;17.35;100.00;100256.25;4965022;28;20478;-69
2023/09/12 05:58:46;;;;;;;5.15;3.25;;;;;;;17.33;100.00;100252.16;4965117;28;20027;-69
2023/09/12 06:01:12;;;;;;;6.57;4.53;;;;;;;17.33;100.00;100257.78;4968290;28;20034;-69
2023/09/12 06:03:37;;;;;;;7.25;3.50;;;;;;;17.34;100.00;100256.59;4981162;28;20104;-69
2023/09/12 06:06:03;;;;;;;8.70;4.38;;;;;;;17.35;100.00;100264.66;4981122;28;20030;-69
2023/09/12 06:08:29;;;;;;;7.15;3.97;;;;;;;17.35;100.00;100263.84;4978722;28;20066;-69
2023/09/12 06:10:55;;;;;;;7.45;4.22;;;;;;;17.36;100.00;100265.50;4980493;28;20491;-69
2023/09/12 06:13:24;;;;;;;6.55;4.32;;;;;;;17.33;100.00;100263.41;4981381;28;20491;-69
2023/09/12 06:15:50;;;;;;;6.80;4.40;;;;;;;17.33;100.00;100272.63;4981022;28;20697;-70
2023/09/12 06:18:15;;;;;;;5.63;4.15;;;;;;;17.32;100.00;100273.78;4980738;28;20038;-70
2023/09/12 06:20:42;;;;;;;7.60;4.28;;;;;;;17.30;100.00;100273.31;4996828;28;20033;-69
2023/09/12 06:23:07;;;;;;;6.25;4.05;;;;;;;17.35;100.00;100283.50;4980723;28;20026;-70
2023/09/12 06:25:33;;;;;;;5.75;3.88;;;;;;;17.34;100.00;100293.09;4996932;28;20038;-69
2023/09/12 06:27:59;;;;;;;4.72;3.67;;;;;;;17.36;100.00;100287.97;4980836;28;20041;-69
2023/09/12 06:30:24;;;;;;;6.22;3.90;;;;;;;17.36;100.00;100304.81;4964403;28;20062;-69
2023/09/12 06:32:50;;;;;;;6.32;3.60;;;;;;;17.36;100.00;100310.41;4980773;28;20042;-70
2023/09/12 06:35:15;;;;;;;5.75;3.67;;;;;;;17.36;100.00;100304.81;4980701;28;20030;-70
2023/09/12 06:37:41;;;;;;;7.63;3.80;;;;;;;17.34;100.00;100310.75;4996559;28;20044;-70
2023/09/12 06:40:07;;;;;;;6.72;4.15;;;;;;;17.36;100.00;100307.59;4980513;28;20049;-70
2023/09/12 06:42:33;;;;;;;9.68;4.95;;;;;;;17.34;100.00;100309.94;4980700;28;20030;-70
2023/09/12 06:44:58;;;;;;;9.18;5.82;;;;;;;17.35;100.00;100311.56;4980694;28;20045;-70
2023/09/12 06:47:24;;;;;;;6.80;4.82;;;;;;;17.38;100.00;100310.88;4980567;28;20034;-70
2023/09/12 06:49:49;;;;;;;10.85;7.15;;;;;;;17.39;100.00;100320.94;4980586;28;20628;-70
2023/09/12 06:52:15;;;;;;;12.02;5.88;;;;;;;17.39;100.00;100320.94;4964359;28;20092;-70
2023/09/12 06:54:41;;;;;;;13.02;6.20;;;;;;;17.42;100.00;100323.06;4964404;28;20039;-70
2023/09/12 06:57:07;;;;;;;10.18;5.28;;;;;;;17.43;100.00;100325.50;4997966;28;20026;-70
2023/09/12 06:59:32;;;;;;;8.82;6.43;;;;;;;17.45;100.00;100332.78;4984413;28;20045;-70
2023/09/12 07:01:58;;;;;;;10.57;5.65;;;;;;;17.46;100.00;100335.22;5000864;28;20035;-70
2023/09/12 07:04:24;;;;;;;14.35;8.32;;;;;;;17.49;100.00;100334.53;4984274;28;20026;-70
2023/09/12 07:06:51;;;;;;;9.48;6.22;;;;;;;17.53;100.00;100341.13;4984660;28;20084;-70
2023/09/12 07:09:16;;;;;;;12.98;6.15;;;;;;;17.57;100.00;100344.88;5000314;28;20058;-70
2023/09/12 07:11:42;;;;;;;10.80;6.15;;;;;;;17.60;100.00;100355.41;4983913;28;20074;-70
2023/09/12 07:14:11;;;;;;;9.55;5.40;;;;;;;17.62;100.00;100349.47;4984266;28;20137;-70
2023/09/12 07:16:36;;;;;;;9.55;5.85;;;;;;;17.65;100.00;100355.19;4984514;28;20031;-70
2023/09/12 07:19:03;;;;;;;7.93;5.35;;;;;;;17.69;100.00;100362.94;4983690;28;20029;-70
2023/09/12 07:21:29;;;;;;;9.40;5.55;;;;;;;17.72;100.00;100362.22;4968354;28;20113;-70
2023/09/12 07:23:55;;;;;;;8.10;5.35;;;;;;;17.75;100.00;100356.75;4965924;28;20104;-70
2023/09/12 07:26:20;;;;;;;6.55;4.97;;;;;;;17.78;100.00;100363.69;5000892;28;20038;-71
2023/09/12 07:28:46;;;;;;;8.38;5.28;;;;;;;17.79;100.00;100354.09;4995801;28;20030;-70
2023/09/12 07:31:11;;;;;;;7.93;5.30;;;;;;;17.81;100.00;100351.78;4999534;28;20394;-71
2023/09/12 07:33:37;;;;;;;7.22;5.15;;;;;;;17.84;100.00;100362.31;4995254;28;20058;-70
2023/09/12 07:36:03;;;;;;;7.00;5.45;;;;;;;17.84;100.00;100363.13;4951839;28;20033;-70
2023/09/12 07:38:31;;;;;;;7.63;4.65;;;;;;;17.85;100.00;100347.09;4999559;28;20490;-70
2023/09/12 07:40:58;;;;;;;6.35;4.60;;;;;;;17.88;100.00;100354.00;4983543;28;20505;-70
2023/09/12 07:43:23;;;;;;;5.90;4.60;;;;;;;17.91;100.00;100358.94;4983901;28;20475;-70
2023/09/12 07:45:49;;;;;;;5.78;4.60;;;;;;;17.91;100.00;100351.31;4964112;28;20035;-70
2023/09/12 07:48:15;;;;;;;7.28;4.90;;;;;;;17.93;100.00;100354.59;4983682;28;20052;-70
2023/09/12 07:50:40;;;;;;;5.80;4.20;;;;;;;17.94;100.00;100353.47;4983309;28;20045;-70
2023/09/12 07:53:06;;;;;;;5.88;4.40;;;;;;;17.99;100.00;100350.41;4983478;28;20041;-70
2023/09/12 07:55:36;;;;;;;8.68;6.00;;;;;;;18.00;100.00;100354.88;4983440;28;20133;-70
2023/09/12 07:58:02;;;;;;;6.82;4.85;;;;;;;18.05;100.00;100356.63;4984521;28;20022;-70
2023/09/12 08:00:28;;;;;;;8.45;6.22;;;;;;;18.06;100.00;100345.03;4983380;28;20053;-70
2023/09/12 08:02:53;;;;;;;6.32;4.85;;;;;;;18.10;100.00;100350.78;4999614;28;20066;-70
2023/09/12 08:05:19;;;;;;;7.05;5.30;;;;;;;18.15;100.00;100347.75;4983034;28;20484;-70
2023/09/12 08:07:44;;;;;;;6.32;4.22;;;;;;;18.22;100.00;100349.97;4999173;28;20034;-70
2023/09/12 08:10:10;;;;;;;8.75;5.18;;;;;;;18.25;100.00;100341.69;4981940;28;20057;-70
2023/09/12 08:12:38;;;;;;;8.25;6.00;;;;;;;18.30;100.00;100343.41;4983143;28;20104;-70
2023/09/12 08:15:04;;;;;;;7.40;5.15;;;;;;;18.36;100.00;100350.47;4983580;28;20034;-70
2023/09/12 08:17:29;;;;;;;8.77;5.90;;;;;;;18.42;100.00;100354.69;4999027;28;20143;-70
2023/09/12 08:19:55;;;;;;;8.20;4.90;;;;;;;18.50;100.00;100359.38;4999028;28;20027;-70
2023/09/12 08:22:20;;;;;;;8.68;6.07;;;;;;;18.57;100.00;100361.59;4966445;28;20062;-70
2023/09/12 08:24:46;;;;;;;8.80;6.25;;;;;;;18.60;100.00;100357.25;4983023;28;20030;-71
2023/09/12 08:27:12;;;;;;;8.18;5.25;;;;;;;18.64;100.00;100361.84;4982788;28;20034;-71
2023/09/12 08:29:38;;;;;;;10.48;7.28;;;;;;;18.67;100.00;100365.94;4982919;28;20030;-71
2023/09/12 08:32:03;;;;;;;10.15;5.65;;;;;;;18.71;100.00;100358.44;4982805;28;20112;-70
2023/09/12 08:34:29;;;;;;;9.57;6.13;;;;;;;18.74;100.00;100366.19;4997688;28;20370;-70
2023/09/12 08:36:54;;;;;;;9.70;6.28;;;;;;;18.78;100.00;100355.88;4966000;28;20057;-70
2023/09/12 08:39:24;;;;;;;8.23;5.70;;;;;;;18.78;100.00;100361.50;4982583;28;20038;-70
2023/09/12 08:41:50;;;;;;;7.85;4.88;;;;;;;18.83;100.00;100357.63;4982606;28;20046;-70
2023/09/12 08:44:16;;;;;;;7.80;5.63;;;;;;;18.86;100.00;100357.75;4982704;28;20035;-70
2023/09/12 08:46:41;;;;;;;9.57;5.45;;;;;;;18.91;100.00;100357.47;4994131;28;20037;-70
2023/09/12 08:49:07;;;;;;;6.57;4.18;;;;;;;18.95;100.00;100358.44;4998756;28;20109;-70
2023/09/12 08:51:33;;;;;;;7.47;4.43;;;;;;;18.97;100.00;100358.91;4966417;28;20147;-70
2023/09/12 08:53:59;;;;;;;8.13;5.85;;;;;;;19.03;100.00;100351.03;4964124;28;20042;-70
2023/09/12 08:56:25;;;;;;;8.18;5.38;;;;;;;19.08;100.00;100364.03;4982585;28;20034;-70
2023/09/12 08:58:50;;;;;;;8.13;4.80;;;;;;;19.11;100.00;100369.78;4998590;28;20088;-70
2023/09/12 09:01:15;;;;;;;9.57;6.13;;;;;;;19.15;100.00;100370.69;4966609;28;20022;-70
2023/09/12 09:03:41;;;;;;;7.18;4.70;;;;;;;19.22;100.00;100361.63;4982120;28;20030;-70
2023/09/12 09:06:08;;;;;;;7.47;4.60;;;;;;;19.25;100.00;100360.09;4982283;28;20502;-70
2023/09/12 09:08:34;;;;;;;7.72;5.78;;;;;;;19.30;100.00;100359.84;4979177;28;20066;-69
2023/09/12 09:11:03;;;;;;;9.77;6.22;;;;;;;19.34;100.00;100361.63;4981700;28;20483;-70
2023/09/12 09:13:28;;;;;;;7.50;5.05;;;;;;;19.39;100.00;100358.56;4982656;28;20034;-70
2023/09/12 09:16:14;;;;;;;6.13;4.03;;;;;;;19.49;100.00;100367.66;4981805;28;20497;-70
2023/09/12 09:18:57;;;;;;;9.38;4.90;;;;;;;19.54;100.00;100364.59;4980595;28;20038;-70
2023/09/12 09:21:25;;;;;;;8.02;4.57;;;;;;;19.60;100.00;100365.97;5006120;28;20030;-70
2023/09/12 09:23:51;;;;;;;6.95;4.32;;;;;;;19.68;100.00;100370.66;4981715;28;20088;-70
2023/09/12 09:26:16;;;;;;;6.32;3.67;;;;;;;19.75;100.00;100373.69;4962006;28;20502;-70
2023/09/12 09:28:42;;;;;;;8.48;3.90;;;;;;;19.85;100.00;100375.16;4981750;28;20026;-70
2023/09/12 09:31:12;;;;;;;5.97;3.90;;;;;;;19.98;100.00;100365.47;4981426;28;20030;-70
2023/09/12 09:33:38;;;;;;;4.97;3.90;;;;;;;20.11;100.00;100373.84;4981716;28;20085;-70
2023/09/12 09:36:05;;;;;;;5.90;3.40;;;;;;;20.27;100.00;100371.84;4965576;28;20030;-70
2023/09/12 09:38:30;;;;;;;4.65;3.05;;;;;;;20.47;100.00;100372.75;4965256;28;20486;-70
2023/09/12 09:40:55;;;;;;;4.50;2.83;;;;;;;20.66;100.00;100375.69;4997832;28;20081;-70
2023/09/12 09:43:21;;;;;;;4.25;2.83;;;;;;;20.80;100.00;100369.56;4965240;28;20030;-70
2023/09/12 09:45:47;;;;;;;5.90;2.78;;;;;;;20.96;100.00;100369.53;4981676;28;20034;-70
2023/09/12 09:48:22;;;;;;;6.00;2.38;;;;;;;21.12;100.00;100359.03;4981343;28;20069;-70
2023/09/12 09:50:48;;;;;;;4.57;2.60;;;;;;;21.22;100.00;100371.72;4965198;28;20026;-70
2023/09/12 09:53:13;;;;;;;3.95;2.38;;;;;;;21.34;100.00;100362.28;4997218;28;20034;-70
2023/09/12 09:55:39;;;;;;;5.03;2.70;;;;;;;21.49;100.00;100371.94;4997528;28;20169;-70
2023/09/12 09:58:08;;;;;;;3.80;2.10;;;;;;;21.68;100.00;100371.13;4981330;28;20506;-70
2023/09/12 10:00:34;;;;;;;8.57;2.58;;;;;;;21.78;100.00;100364.84;4980640;28;20113;-70
2023/09/12 10:02:59;;;;;;;6.53;3.08;;;;;;;21.93;100.00;100363.94;4996450;28;20034;-70
2023/09/12 10:05:25;;;;;;;5.13;2.88;;;;;;;22.05;100.00;100369.41;4981069;28;20092;-70
2023/09/12 10:07:50;;;;;;;3.78;2.40;;;;;;;22.22;100.00;100364.50;4964475;28;20056;-70
2023/09/12 10:10:18;;;;;;;5.30;2.40;;;;;;;22.36;100.00;100363.94;4980557;28;20133;-70
2023/09/12 10:12:48;;;;;;;4.93;2.10;;;;;;;22.50;100.00;100367.00;4980395;28;20477;-70
2023/09/12 10:15:15;;;;;;;4.10;2.58;;;;;;;22.62;100.00;100357.50;4979904;28;20398;-70
2023/09/12 10:17:41;;;;;;;3.13;2.13;;;;;;;22.73;100.00;100356.47;4957565;28;20084;-70
2023/09/12 10:20:10;;;;;;;3.00;2.20;;;;;;;22.82;100.00;100364.69;4978160;28;20030;-70
2023/09/12 10:22:53;;;;;;;3.55;2.40;;;;;;;22.95;100.00;100360.47;4964626;28;20085;-70
2023/09/12 10:25:18;;;;;;;3.38;1.60;;;;;;;23.05;100.00;100361.03;4965552;28;20027;-70
2023/09/12 10:27:44;;;;;;;3.80;2.28;;;;;;;23.11;100.00;100362.31;4978828;28;20037;-70
2023/09/12 10:30:10;;;;;;;4.20;2.28;;;;;;;23.16;100.00;100367.66;4976804;28;20092;-70
2023/09/12 10:32:35;;;;;;;5.10;1.90;;;;;;;23.24;100.00;100374.25;4964118;28;20030;-70
2023/09/12 10:35:01;;;;;;;2.20;1.65;;;;;;;23.36;100.00;100374.00;4980532;28;20038;-71
2023/09/12 10:37:26;;;;;;;3.22;1.50;;;;;;;23.45;100.00;100382.19;4980734;28;20088;-70
2023/09/12 10:39:55;;;;;;;2.80;1.85;;;;;;;23.51;100.00;100384.28;4980557;28;20026;-70
2023/09/12 10:42:21;;;;;;;4.07;1.90;;;;;;;23.52;100.00;100379.47;4996703;28;20449;-70
2023/09/12 10:44:46;;;;;;;4.22;1.60;;;;;;;23.61;100.00;100383.63;4978719;28;20077;-70
2023/09/12 10:47:12;;;;;;;4.07;1.75;;;;;;;23.70;100.00;100376.84;4971711;28;20110;-70
2023/09/12 10:49:37;;;;;;;2.97;1.40;;;;;;;23.79;100.00;100368.88;4978167;28;20077;-69
2023/09/12 10:52:03;;;;;;;2.78;1.30;;;;;;;23.88;100.00;100375.06;4980242;28;20546;-70
2023/09/12 10:54:41;;;;;;;2.95;1.58;;;;;;;24.02;100.00;100363.88;4980438;28;20038;-70
2023/09/12 10:57:11;;;;;;;2.05;1.38;;;;;;;24.18;100.00;100363.63;4964443;28;20394;-70
2023/09/12 10:59:36;;;;;;;2.63;1.40;;;;;;;24.27;100.00;100369.78;4980791;28;20026;-70
2023/09/12 11:02:28;;;;;;;3.22;1.50;;;;;;;24.39;100.00;100373.56;4996725;28;20030;-70
2023/09/12 11:04:54;;;;;;;3.50;1.25;;;;;;;24.47;100.00;100372.44;4971377;28;20035;-70
2023/09/12 11:07:38;;;;;;;3.53;1.48;;;;;;;24.57;100.00;100366.00;4979953;28;20434;-70
2023/09/12 11:10:14;;;;;;;4.07;1.67;;;;;;;24.64;100.00;100366.09;4996204;28;20062;-70
2023/09/12 11:12:40;;;;;;;3.95;1.45;;;;;;;24.72;100.00;100369.81;5006729;28;20038;-70